Time;durP1;ratioP1;P1;durP2;ratioP2;P2;SDS_P1;SDS_P2;PMS_P1;PMS_P2;Temp;Humidity;BMP_temperature;BMP_pressure;BME280_temperature;BME280_humidity;BME280_pressure;Samples;Min_cycle;Max_cycle;Signal;HPM_P1;HPM_P2
2022/04/13 00:00:39;;;;;;;;;;;;;;;27.96;25.03;101145.28;5016314;28;833;-39
2022/04/13 00:03:04;;;;;;;;;;;;;;;28.02;24.84;101147.25;5017421;28;754;-36
2022/04/13 00:05:29;;;;;;;;;;;;;;;28.14;24.75;101149.53;5021651;28;817;-39
2022/04/13 00:07:55;;;;;;;;;;;;;;;28.20;24.61;101140.69;5017794;28;815;-40
2022/04/13 00:10:20;;;;;;;;;;;;;;;28.02;25.13;101141.84;5023180;28;880;-37
2022/04/13 00:12:45;;;;;;;;;;;;;;;27.92;25.16;101142.09;5016423;28;885;-39
2022/04/13 00:15:11;;;;;;;;;;;;;;;27.97;25.25;101136.13;5016520;28;861;-38
2022/04/13 00:17:36;;;;;;;;;;;;;;;28.03;25.19;101135.41;5016807;28;1902;-39
2022/04/13 00:20:02;;;;;;;;;;;;;;;28.22;25.28;101138.66;5019433;28;934;-39
2022/04/13 00:22:27;;;;;;;;;;;;;;;28.09;24.57;101133.84;5016661;28;752;-38
2022/04/13 00:24:52;;;;;;;;;;;;;;;27.92;24.91;101133.13;5021017;28;878;-39
2022/04/13 00:27:18;;;;;;;;;;;;;;;27.91;24.97;101134.97;5016494;28;1218;-38
2022/04/13 00:29:43;;;;;;;;;;;;;;;27.97;25.32;101131.56;5016632;28;870;-39
2022/04/13 00:32:08;;;;;;;;;;;;;;;28.06;24.77;101132.34;5021990;28;846;-38
2022/04/13 00:34:34;;;;;;;;;;;;;;;28.03;24.79;101137.28;5016786;28;727;-37
2022/04/13 00:36:59;;;;;;;;;;;;;;;27.94;25.24;101137.34;5018195;28;1953;-39
2022/04/13 00:39:25;;;;;;;;;;;;;;;27.65;25.74;101135.28;5018936;28;1022;-39
2022/04/13 00:41:56;;;;;;;;;;;;;;;28.16;25.30;101132.09;5016137;28;799;-40
2022/04/13 00:44:21;;;;;;;;;;;;;;;28.23;24.78;101129.50;5018001;28;834;-39
2022/04/13 00:46:47;;;;;;;;;;;;;;;28.33;24.51;101129.28;5016799;28;794;-38
2022/04/13 00:49:12;;;;;;;;;;;;;;;28.33;24.38;101134.69;5008833;28;1024;-39
2022/04/13 00:51:37;;;;;;;;;;;;;;;28.39;22.68;101136.69;5017841;28;1228;-40
2022/04/13 00:54:03;;;;;;;;;;;;;;;27.69;23.01;101137.50;5017168;28;888;-40
2022/04/13 00:56:29;;;;;;;;;;;;;;;27.45;23.11;101135.72;5033721;28;1902;-38
2022/04/13 00:58:55;;;;;;;;;;;;;;;28.12;23.56;101138.91;5016202;28;934;-39
2022/04/13 01:01:23;;;;;;;;;;;;;;;28.27;23.50;101133.56;5020572;28;877;-39
2022/04/13 01:03:52;;;;;;;;;;;;;;;28.38;23.16;101140.41;5016627;28;771;-38
2022/04/13 01:06:18;;;;;;;;;;;;;;;28.54;22.69;101138.59;5016496;28;826;-39
2022/04/13 01:08:43;;;;;;;;;;;;;;;28.79;22.36;101143.78;5017460;28;1414;-39
2022/04/13 01:11:09;;;;;;;;;;;;;;;27.97;22.16;101141.53;5020823;28;1125;-37
2022/04/13 01:13:38;;;;;;;;;;;;;;;27.59;22.67;101140.38;5019673;28;773;-39
2022/04/13 01:16:04;;;;;;;;;;;;;;;27.46;23.46;101145.53;5019837;28;892;-40
2022/04/13 01:18:29;;;;;;;;;;;;;;;27.47;23.14;101131.84;5019934;28;1906;-39
2022/04/13 01:20:56;;;;;;;;;;;;;;;27.33;23.19;101135.25;5019807;28;800;-39
2022/04/13 01:23:22;;;;;;;;;;;;;;;27.33;23.32;101132.56;5024612;28;1439;-39
2022/04/13 01:25:49;;;;;;;;;;;;;;;27.35;23.44;101138.63;5023700;28;879;-40
2022/04/13 01:28:14;;;;;;;;;;;;;;;27.20;23.92;101127.72;5020047;28;862;-39
2022/04/13 01:30:39;;;;;;;;;;;;;;;27.02;22.96;101135.03;5017752;28;843;-42
2022/04/13 01:33:05;;;;;;;;;;;;;;;27.28;23.84;101137.66;5019821;28;1073;-38
2022/04/13 01:35:30;;;;;;;;;;;;;;;27.90;22.69;101127.91;5021230;28;873;-39
2022/04/13 01:37:55;;;;;;;;;;;;;;;27.94;22.81;101128.38;5019858;28;1911;-37
2022/04/13 01:40:21;;;;;;;;;;;;;;;28.15;22.59;101132.28;5020887;28;1103;-39
2022/04/13 01:42:49;;;;;;;;;;;;;;;28.47;21.94;101131.22;5019231;28;1135;-39
2022/04/13 01:45:19;;;;;;;;;;;;;;;27.80;22.39;101130.84;5019504;28;843;-40
2022/04/13 01:47:48;;;;;;;;;;;;;;;27.59;23.29;101126.03;5023794;28;777;-37
2022/04/13 01:50:14;;;;;;;;;;;;;;;27.24;22.24;101132.59;5022472;28;908;-37
2022/04/13 01:52:39;;;;;;;;;;;;;;;27.11;22.78;101126.91;5019948;28;944;-37
2022/04/13 01:55:05;;;;;;;;;;;;;;;27.16;23.84;101129.91;5025856;28;840;-39
2022/04/13 01:57:30;;;;;;;;;;;;;;;27.09;23.00;101123.53;5019485;28;1910;-39
2022/04/13 01:59:55;;;;;;;;;;;;;;;27.14;22.90;101127.38;5019903;28;858;-37
2022/04/13 02:02:21;;;;;;;;;;;;;;;26.97;23.24;101129.28;5018755;28;786;-39
2022/04/13 02:04:48;;;;;;;;;;;;;;;26.80;23.11;101131.16;5017933;28;916;-40
2022/04/13 02:07:13;;;;;;;;;;;;;;;26.77;22.75;101131.53;5019737;28;869;-39
2022/04/13 02:09:39;;;;;;;;;;;;;;;26.84;22.71;101134.38;5023624;28;917;-38
2022/04/13 02:12:04;;;;;;;;;;;;;;;26.84;23.44;101140.59;5019057;28;778;-38
2022/04/13 02:14:29;;;;;;;;;;;;;;;27.55;22.64;101135.50;5023782;28;1495;-37
2022/04/13 02:16:55;;;;;;;;;;;;;;;27.89;22.32;101138.91;5018947;28;1914;-39
2022/04/13 02:19:20;;;;;;;;;;;;;;;28.30;22.01;101137.75;5018954;28;897;-39
2022/04/13 02:21:45;;;;;;;;;;;;;;;27.66;22.18;101126.16;5019308;28;743;-39
2022/04/13 02:24:10;;;;;;;;;;;;;;;27.49;22.67;101120.84;5020692;28;937;-39
2022/04/13 02:26:36;;;;;;;;;;;;;;;27.53;22.43;101119.47;5020973;28;845;-39
2022/04/13 02:29:01;;;;;;;;;;;;;;;27.78;22.00;101129.34;5018805;28;853;-39
2022/04/13 02:31:26;;;;;;;;;;;;;;;28.04;21.94;101149.78;5018735;28;1548;-39
2022/04/13 02:33:54;;;;;;;;;;;;;;;28.09;21.62;101152.78;5018012;28;792;-38
2022/04/13 02:36:19;;;;;;;;;;;;;;;28.11;21.42;101156.97;5018636;28;1914;-39
2022/04/13 02:38:44;;;;;;;;;;;;;;;28.39;20.93;101147.53;5022292;28;1195;-40
2022/04/13 02:41:10;;;;;;;;;;;;;;;27.82;21.27;101152.28;5018790;28;1046;-39
2022/04/13 02:43:35;;;;;;;;;;;;;;;27.57;21.99;101144.28;5017985;28;786;-39
2022/04/13 02:46:00;;;;;;;;;;;;;;;27.19;22.29;101143.09;5025099;28;977;-39
2022/04/13 02:48:25;;;;;;;;;;;;;;;27.05;22.40;101152.75;5037539;28;829;-40
2022/04/13 02:50:52;;;;;;;;;;;;;;;26.98;22.13;101154.41;5030734;28;1044;-39
2022/04/13 02:53:17;;;;;;;;;;;;;;;27.18;22.72;101164.84;5027011;28;718;-39
2022/04/13 02:55:42;;;;;;;;;;;;;;;27.67;22.35;101154.88;5030682;28;970;-37
2022/04/13 02:58:08;;;;;;;;;;;;;;;28.01;21.92;101148.25;5036284;28;1979;-39
2022/04/13 03:00:33;;;;;;;;;;;;;;;27.50;22.50;101149.53;5037046;28;1256;-40
2022/04/13 03:02:58;;;;;;;;;;;;;;;26.89;23.20;101151.72;5037166;28;762;-40
2022/04/13 03:05:23;;;;;;;;;;;;;;;26.81;23.27;101150.91;5023386;28;861;-40
2022/04/13 03:07:49;;;;;;;;;;;;;;;27.67;22.52;101163.81;5022370;28;1870;-37
2022/04/13 03:10:14;;;;;;;;;;;;;;;28.03;22.20;101164.34;5030771;28;891;-38
2022/04/13 03:12:42;;;;;;;;;;;;;;;27.97;22.13;101171.28;5018276;28;862;-37
2022/04/13 03:15:07;;;;;;;;;;;;;;;28.35;21.85;101165.97;5018677;28;802;-40
2022/04/13 03:17:32;;;;;;;;;;;;;;;28.32;21.79;101168.16;5024285;28;1968;-40
2022/04/13 03:19:58;;;;;;;;;;;;;;;26.94;20.49;101175.53;5035047;28;1068;-40
2022/04/13 03:22:23;;;;;;;;;;;;;;;26.31;20.29;101177.88;5036144;28;998;-38
2022/04/13 03:24:49;;;;;;;;;;;;;;;26.94;21.73;101180.06;5035103;28;1133;-40
2022/04/13 03:27:14;;;;;;;;;;;;;;;27.89;20.32;101182.16;5036465;28;1215;-39
2022/04/13 03:29:39;;;;;;;;;;;;;;;28.04;20.02;101166.00;5031182;28;1258;-38
2022/04/13 03:32:05;;;;;;;;;;;;;;;28.17;20.06;101176.22;5016407;28;827;-38
2022/04/13 03:34:30;;;;;;;;;;;;;;;28.11;19.64;101181.31;5016065;28;774;-37
2022/04/13 03:36:55;;;;;;;;;;;;;;;27.70;18.22;101192.38;5017387;28;1960;-40
2022/04/13 03:39:21;;;;;;;;;;;;;;;26.35;18.88;101184.63;5019451;28;1236;-39
2022/04/13 03:41:46;;;;;;;;;;;;;;;25.88;19.67;101193.13;5020591;28;958;-39
2022/04/13 03:44:11;;;;;;;;;;;;;;;25.41;19.58;101187.19;5016878;28;829;-40
2022/04/13 03:46:37;;;;;;;;;;;;;;;24.74;19.67;101174.28;5024188;28;837;-38
2022/04/13 03:49:02;;;;;;;;;;;;;;;24.20;19.58;101179.56;5021139;28;910;-37
2022/04/13 03:51:27;;;;;;;;;;;;;;;24.18;19.91;101180.69;5019767;28;896;-37
2022/04/13 03:53:52;;;;;;;;;;;;;;;24.25;20.53;101183.59;5016348;28;907;-39
2022/04/13 03:56:18;;;;;;;;;;;;;;;24.51;20.37;101194.44;5020057;28;1910;-40
2022/04/13 03:58:43;;;;;;;;;;;;;;;24.48;19.94;101197.44;5016727;28;930;-40
2022/04/13 04:01:09;;;;;;;;;;;;;;;24.87;20.43;101188.19;5028718;28;1007;-37
2022/04/13 04:03:34;;;;;;;;;;;;;;;25.20;20.54;101187.56;5031647;28;1151;-39
2022/04/13 04:05:59;;;;;;;;;;;;;;;25.80;20.15;101191.25;5034646;28;1163;-35
2022/04/13 04:08:26;;;;;;;;;;;;;;;26.13;20.61;101197.72;5029348;28;843;-36
2022/04/13 04:10:52;;;;;;;;;;;;;;;26.35;20.51;101196.28;5019023;28;1562;-35
2022/04/13 04:13:17;;;;;;;;;;;;;;;26.52;20.98;101207.94;5016195;28;761;-39
2022/04/13 04:15:43;;;;;;;;;;;;;;;26.64;20.70;101208.41;5016262;28;848;-39
2022/04/13 04:18:08;;;;;;;;;;;;;;;26.00;21.10;101050.78;5015725;28;1898;-36
2022/04/13 04:20:34;;;;;;;;;;;;;;;27.09;20.57;101212.66;5019342;28;895;-35
2022/04/13 04:22:59;;;;;;;;;;;;;;;27.31;20.92;101215.66;5016224;28;790;-38
2022/04/13 04:25:24;;;;;;;;;;;;;;;27.47;20.65;101198.53;5016419;28;829;-38
2022/04/13 04:27:50;;;;;;;;;;;;;;;27.59;20.67;101197.13;5016053;28;1403;-36
2022/04/13 04:30:15;;;;;;;;;;;;;;;27.70;20.64;101214.00;5016765;28;898;-37
2022/04/13 04:32:40;;;;;;;;;;;;;;;27.84;20.51;101218.66;5018367;28;980;-39
2022/04/13 04:35:06;;;;;;;;;;;;;;;27.88;20.61;101219.16;5019946;28;782;-37
2022/04/13 04:37:31;;;;;;;;;;;;;;;28.02;20.72;101224.81;5015810;28;1961;-39
2022/04/13 04:39:57;;;;;;;;;;;;;;;28.08;20.74;101227.66;4976294;28;1318770;-36
2022/04/13 04:42:22;;;;;;;;;;;;;;;28.18;20.51;101219.31;5016848;28;862;-41
2022/04/13 04:44:47;;;;;;;;;;;;;;;28.32;20.70;101216.88;5016720;28;870;-38
2022/04/13 04:47:12;;;;;;;;;;;;;;;28.38;20.68;101221.59;5017476;28;858;-39
2022/04/13 04:49:40;;;;;;;;;;;;;;;28.49;20.55;101217.63;5022963;28;1081;-39
2022/04/13 04:52:05;;;;;;;;;;;;;;;28.66;20.61;101218.31;5021911;28;904;-39
2022/04/13 04:54:31;;;;;;;;;;;;;;;28.70;20.51;101224.22;5020747;28;875;-41
2022/04/13 04:56:56;;;;;;;;;;;;;;;28.77;20.39;101229.75;5016847;28;1910;-39
2022/04/13 04:59:21;;;;;;;;;;;;;;;28.83;20.32;101221.72;5022007;28;902;-38
2022/04/13 05:01:47;;;;;;;;;;;;;;;28.91;20.24;101230.81;5035945;28;822;-39
2022/04/13 05:04:12;;;;;;;;;;;;;;;28.87;20.30;101238.47;5035858;28;775;-40
2022/04/13 05:06:37;;;;;;;;;;;;;;;28.61;20.97;101242.41;5035187;28;861;-40
2022/04/13 05:09:03;;;;;;;;;;;;;;;28.15;21.51;101244.03;5035658;28;837;-37
2022/04/13 05:11:28;;;;;;;;;;;;;;;28.27;21.57;101246.31;5019886;28;909;-39
2022/04/13 05:13:53;;;;;;;;;;;;;;;28.39;21.32;101250.34;5016664;28;814;-38
2022/04/13 05:16:19;;;;;;;;;;;;;;;28.39;21.14;101246.78;5016338;28;1966;-38
2022/04/13 05:18:47;;;;;;;;;;;;;;;28.53;21.08;101248.72;5016129;28;1164;-41
2022/04/13 05:21:13;;;;;;;;;;;;;;;28.66;21.13;101249.97;5032463;28;1279;-39
2022/04/13 05:23:41;;;;;;;;;;;;;;;28.72;20.92;101251.94;5035038;28;813;-40
2022/04/13 05:26:06;;;;;;;;;;;;;;;28.87;21.04;101246.59;5018667;28;1464;-39
2022/04/13 05:28:31;;;;;;;;;;;;;;;29.00;20.72;101240.56;5016067;28;857;-37
2022/04/13 05:30:57;;;;;;;;;;;;;;;29.09;20.83;101244.03;5016412;28;819;-40
2022/04/13 05:33:22;;;;;;;;;;;;;;;29.15;20.45;101240.59;5015977;28;843;-40
2022/04/13 05:35:48;;;;;;;;;;;;;;;29.26;20.71;101241.16;5014379;28;763;-38
2022/04/13 05:38:13;;;;;;;;;;;;;;;29.31;20.48;101246.88;5017467;28;1973;-40
2022/04/13 05:40:38;;;;;;;;;;;;;;;29.38;20.46;101245.06;5020396;28;892;-40
2022/04/13 05:43:04;;;;;;;;;;;;;;;29.00;20.87;101250.53;5016363;28;822;-40
2022/04/13 05:45:29;;;;;;;;;;;;;;;28.59;21.18;101242.56;5016263;28;834;-39
2022/04/13 05:47:54;;;;;;;;;;;;;;;28.67;21.38;101254.34;5015821;28;822;-39
2022/04/13 05:50:19;;;;;;;;;;;;;;;28.80;21.24;101253.75;5020520;28;946;-41
2022/04/13 05:52:45;;;;;;;;;;;;;;;28.84;21.27;101255.06;5015505;28;885;-40
2022/04/13 05:55:10;;;;;;;;;;;;;;;28.95;21.06;101259.19;5018611;28;887;-38
2022/04/13 05:57:36;;;;;;;;;;;;;;;28.95;21.30;101254.63;5015889;28;1968;-40
2022/04/13 06:00:02;;;;;;;;;;;;;;;29.04;21.02;101254.59;5019499;28;849;-40
2022/04/13 06:02:27;;;;;;;;;;;;;;;29.11;20.92;101258.25;5021312;28;865;-40
2022/04/13 06:04:53;;;;;;;;;;;;;;;29.16;20.65;101265.81;5019931;28;831;-40
2022/04/13 06:07:18;;;;;;;;;;;;;;;29.21;20.78;101261.50;5019114;28;841;-39
2022/04/13 06:09:43;;;;;;;;;;;;;;;29.31;20.89;101257.72;5020050;28;889;-40
2022/04/13 06:12:09;;;;;;;;;;;;;;;29.34;20.84;101252.72;5018879;28;830;-38
2022/04/13 06:14:34;;;;;;;;;;;;;;;29.47;20.76;101256.69;5021796;28;846;-41
2022/04/13 06:16:59;;;;;;;;;;;;;;;29.52;20.54;101256.13;5021753;28;1967;-40
2022/04/13 06:19:25;;;;;;;;;;;;;;;29.54;20.42;101263.03;5028320;28;1081;-40
2022/04/13 06:21:50;;;;;;;;;;;;;;;29.56;20.65;101260.97;5037149;28;1242;-40
2022/04/13 06:24:16;;;;;;;;;;;;;;;29.81;20.16;101262.59;5037148;28;1381;-38
2022/04/13 06:26:41;;;;;;;;;;;;;;;29.54;20.16;101256.78;5034757;28;1215;-40
2022/04/13 06:29:07;;;;;;;;;;;;;;;29.21;20.71;101266.09;5037033;28;1243;-40
2022/04/13 06:31:32;;;;;;;;;;;;;;;29.23;20.72;101261.31;5037790;28;775;-37
2022/04/13 06:33:57;;;;;;;;;;;;;;;29.36;20.77;101263.41;5037816;28;904;-40
2022/04/13 06:36:22;;;;;;;;;;;;;;;29.37;20.75;101266.94;5037648;28;1971;-40
2022/04/13 06:38:48;;;;;;;;;;;;;;;29.42;20.47;101259.09;5037633;28;1138;-40
2022/04/13 06:41:13;;;;;;;;;;;;;;;29.41;20.77;101252.84;5028021;28;830;-38
2022/04/13 06:43:39;;;;;;;;;;;;;;;29.41;20.54;101258.25;5018634;28;873;-40
2022/04/13 06:46:04;;;;;;;;;;;;;;;29.17;20.88;101257.50;5018900;28;872;-40
2022/04/13 06:48:29;;;;;;;;;;;;;;;29.14;21.11;101266.00;5018426;28;825;-39
2022/04/13 06:50:55;;;;;;;;;;;;;;;29.21;21.01;101256.09;5030750;28;1076;-41
2022/04/13 06:53:20;;;;;;;;;;;;;;;29.34;20.95;101255.44;5019280;28;959;-40
2022/04/13 06:55:47;;;;;;;;;;;;;;;29.41;20.63;101258.25;5036203;28;1235;-41
2022/04/13 06:58:13;;;;;;;;;;;;;;;29.54;20.49;101257.63;5037499;28;1979;-39
2022/04/13 07:00:38;;;;;;;;;;;;;;;29.67;20.26;101258.84;5036930;28;842;-40
2022/04/13 07:03:03;;;;;;;;;;;;;;;29.39;20.69;101260.31;5037234;28;844;-39
2022/04/13 07:05:29;;;;;;;;;;;;;;;28.98;21.07;101264.28;5037064;28;812;-40
2022/04/13 07:07:54;;;;;;;;;;;;;;;30.21;19.67;101267.69;5019949;28;1054;-40
2022/04/13 07:10:20;;;;;;;;;;;;;;;29.26;20.72;101260.94;5024302;28;897;-41
2022/04/13 07:12:45;;;;;;;;;;;;;;;28.85;21.08;101259.44;5017938;28;779;-41
2022/04/13 07:15:11;;;;;;;;;;;;;;;28.80;21.26;101257.28;5017804;28;862;-40
2022/04/13 07:17:36;;;;;;;;;;;;;;;28.68;21.38;101262.28;5018193;28;1960;-40
2022/04/13 07:20:02;;;;;;;;;;;;;;;28.58;21.47;101259.84;5018406;28;839;-39
2022/04/13 07:22:27;;;;;;;;;;;;;;;28.53;21.80;101266.81;5017791;28;802;-42
2022/04/13 07:24:52;;;;;;;;;;;;;;;28.37;21.85;101271.31;5022559;28;933;-38
2022/04/13 07:27:18;;;;;;;;;;;;;;;28.56;21.80;101274.59;5018022;28;838;-39
2022/04/13 07:29:43;;;;;;;;;;;;;;;29.99;20.19;101280.31;5035785;28;1119;-40
2022/04/13 07:32:08;;;;;;;;;;;;;;;29.37;20.65;101273.22;5033652;28;1235;-39
2022/04/13 07:34:34;;;;;;;;;;;;;;;29.55;20.65;101272.84;5034392;28;1278;-41
2022/04/13 07:36:59;;;;;;;;;;;;;;;29.68;20.36;101274.94;5035928;28;1963;-38
2022/04/13 07:39:24;;;;;;;;;;;;;;;29.92;20.30;101282.94;5032464;28;1393;-37
2022/04/13 07:41:50;;;;;;;;;;;;;;;30.07;19.98;101288.34;5036070;28;1274;-40
2022/04/13 07:44:15;;;;;;;;;;;;;;;30.43;19.58;101283.97;5031621;28;1145;-39
2022/04/13 07:46:40;;;;;;;;;;;;;;;30.70;19.34;101280.69;5036035;28;1041;-40
2022/04/13 07:49:06;;;;;;;;;;;;;;;30.76;19.35;101279.91;5035819;28;1073;-36
2022/04/13 07:51:32;;;;;;;;;;;;;;;30.79;19.43;101279.50;5034163;28;1053;-39
2022/04/13 07:53:58;;;;;;;;;;;;;;;30.85;19.10;101275.19;5033138;28;1271;-39
2022/04/13 07:56:23;;;;;;;;;;;;;;;30.61;19.31;101279.97;5031764;28;1906;-40
2022/04/13 07:58:48;;;;;;;;;;;;;;;30.37;19.30;101269.31;5033872;28;1171;-40
2022/04/13 08:01:14;;;;;;;;;;;;;;;30.82;19.33;101275.59;5035637;28;1358;-39
2022/04/13 08:03:40;;;;;;;;;;;;;;;30.67;19.36;101277.31;5035705;28;1290;-40
2022/04/13 08:06:05;;;;;;;;;;;;;;;30.54;19.31;101280.75;5035519;28;1246;-38
2022/04/13 08:08:30;;;;;;;;;;;;;;;30.53;19.72;101275.53;5035190;28;1341;-40
2022/04/13 08:10:56;;;;;;;;;;;;;;;30.52;19.82;101271.09;5031608;28;1297;-40
2022/04/13 08:13:21;;;;;;;;;;;;;;;30.49;19.74;101266.06;5033967;28;1224;-40
2022/04/13 08:15:47;;;;;;;;;;;;;;;30.35;19.88;101265.09;5035672;28;1419;-37
2022/04/13 08:18:13;;;;;;;;;;;;;;;30.60;18.83;101270.97;5036052;28;1898;-36
2022/04/13 08:20:38;;;;;;;;;;;;;;;30.07;18.96;101261.22;5035511;28;897;-38
2022/04/13 08:23:04;;;;;;;;;;;;;;;30.09;18.59;101261.88;5028416;28;769;-37
2022/04/13 08:25:29;;;;;;;;;;;;;;;30.23;18.31;101256.63;5021602;28;778;-39
2022/04/13 08:27:54;;;;;;;;;;;;;;;30.55;18.49;101252.56;5029450;28;1168;-39
2022/04/13 08:30:19;;;;;;;;;;;;;;;30.96;18.03;101252.09;5035169;28;1318;-40
2022/04/13 08:32:45;;;;;;;;;;;;;;;30.63;18.78;101261.63;5035611;28;1424;-39
2022/04/13 08:35:11;;;;;;;;;;;;;;;30.30;18.96;101254.81;5033791;28;1096;-40
2022/04/13 08:37:36;;;;;;;;;;;;;;;30.76;18.56;101244.59;5034572;28;1969;-40
2022/04/13 08:40:02;;;;;;;;;;;;;;;30.67;18.83;101249.31;5034219;28;1139;-39
2022/04/13 08:42:47;;;;;;;;;;;;;;;30.73;18.97;101253.97;5034887;28;1088;-38
2022/04/13 08:45:15;;;;;;;;;;;;;;;30.80;18.92;101248.63;5035471;28;1207;-40
2022/04/13 08:47:44;;;;;;;;;;;;;;;30.53;19.11;101254.63;5031373;28;1255;-39
2022/04/13 08:50:09;;;;;;;;;;;;;;;31.17;18.52;101253.91;5032657;28;1235;-40
2022/04/13 08:52:35;;;;;;;;;;;;;;;30.81;18.84;101241.31;5016798;28;900;-41
2022/04/13 08:55:04;;;;;;;;;;;;;;;30.35;19.49;101248.78;5016025;28;845;-40
2022/04/13 08:57:29;;;;;;;;;;;;;;;30.11;19.63;101234.56;5016475;28;1910;-41
2022/04/13 08:59:57;;;;;;;;;;;;;;;29.86;19.95;101232.19;5016442;28;1558;-40
2022/04/13 09:02:38;;;;;;;;;;;;;;;29.72;20.24;101220.31;5016717;28;818;-41
2022/04/13 09:05:04;;;;;;;;;;;;;;;29.68;20.29;101223.41;5016472;28;854;-40
2022/04/13 09:07:30;;;;;;;;;;;;;;;29.50;20.52;101220.22;5015177;28;1346;-40
2022/04/13 09:09:56;;;;;;;;;;;;;;;29.87;20.29;101226.56;5021923;28;878;-40
2022/04/13 09:12:21;;;;;;;;;;;;;;;30.54;19.55;101218.31;5016903;28;747;-40
2022/04/13 09:14:47;;;;;;;;;;;;;;;30.76;19.08;101215.53;5018636;28;846;-39
2022/04/13 09:17:12;;;;;;;;;;;;;;;30.53;19.20;101218.50;5015007;28;1948;-39
2022/04/13 09:19:37;;;;;;;;;;;;;;;29.93;19.99;101201.38;5016287;28;846;-40
2022/04/13 09:22:03;;;;;;;;;;;;;;;29.84;19.95;101205.25;5016598;28;834;-40
2022/04/13 09:24:28;;;;;;;;;;;;;;;29.75;20.27;101211.81;5020298;28;880;-40
2022/04/13 09:26:53;;;;;;;;;;;;;;;29.66;20.14;101216.50;5020978;28;846;-39
2022/04/13 09:29:19;;;;;;;;;;;;;;;29.43;20.51;101212.84;5016386;28;770;-40
2022/04/13 09:31:44;;;;;;;;;;;;;;;30.31;19.69;101208.47;5016116;28;978;-41
2022/04/13 09:34:10;;;;;;;;;;;;;;;30.75;19.16;101202.16;5019456;28;853;-40
2022/04/13 09:36:35;;;;;;;;;;;;;;;30.38;19.49;101203.13;5019616;28;1962;-40
2022/04/13 09:39:00;;;;;;;;;;;;;;;29.88;20.10;101194.88;5022999;28;1237;-40
2022/04/13 09:41:36;;;;;;;;;;;;;;;29.61;20.37;101191.84;5019965;28;864;-42
2022/04/13 09:44:01;;;;;;;;;;;;;;;29.55;20.61;101188.81;5019458;28;794;-40
2022/04/13 09:46:28;;;;;;;;;;;;;;;29.64;20.58;101180.59;5019583;28;788;-39
2022/04/13 09:49:12;;;;;;;;;;;;;;;29.58;20.52;101179.44;5019959;28;795;-42
2022/04/13 09:51:37;;;;;;;;;;;;;;;30.31;19.98;101186.75;5028755;28;1227;-41
2022/04/13 09:54:10;;;;;;;;;;;;;;;30.76;19.46;101198.44;5038830;28;944;-41
2022/04/13 09:56:35;;;;;;;;;;;;;;;30.63;19.15;101185.59;5019768;28;1969;-41
2022/04/13 09:59:01;;;;;;;;;;;;;;;30.10;18.68;101190.28;5019298;28;908;-41
2022/04/13 10:01:26;;;;;;;;;;;;;;;29.89;19.41;101193.81;5019558;28;782;-40
2022/04/13 10:03:57;;;;;;;;;;;;;;;29.74;19.78;101178.44;5030859;28;1116;-42
2022/04/13 10:06:27;;;;;;;;;;;;;;;29.67;19.79;101186.50;5018887;28;919;-40
2022/04/13 10:09:00;;;;;;;;;;;;;;;29.53;20.08;101193.56;5019640;28;782;-41
2022/04/13 10:11:25;;;;;;;;;;;;;;;29.50;20.15;101179.56;5023874;28;830;-42
2022/04/13 10:13:50;;;;;;;;;;;;;;;29.12;20.65;101186.78;5019136;28;1423;-40
2022/04/13 10:16:16;;;;;;;;;;;;;;;30.19;19.52;101177.44;5019475;28;801;-41
2022/04/13 10:19:00;;;;;;;;;;;;;;;30.64;18.91;101176.41;5025552;28;1971;-39
2022/04/13 10:21:44;;;;;;;;;;;;;;;30.94;18.89;101181.66;5019007;28;849;-41
2022/04/13 10:24:29;;;;;;;;;;;;;;;29.92;19.98;101183.44;5020517;28;870;-41
2022/04/13 10:27:01;;;;;;;;;;;;;;;29.74;20.22;101183.88;5018192;28;1067;-39
2022/04/13 10:29:26;;;;;;;;;;;;;;;29.65;20.36;101179.56;5022204;28;773;-41
2022/04/13 10:32:18;;;;;;;;;;;;;;;29.62;20.24;101172.66;5019185;28;763;-40
2022/04/13 10:34:44;;;;;;;;;;;;;;;29.43;20.54;101171.34;5016762;28;1510;-40
2022/04/13 10:37:10;;;;;;;;;;;;;;;29.44;20.69;101168.47;5018497;28;1966;-41
2022/04/13 10:39:35;;;;;;;;;;;;;;;29.17;20.98;101178.09;5019221;28;1611;-40
2022/04/13 10:42:01;;;;;;;;;;;;;;;30.56;19.49;101180.09;5020893;28;799;-41
2022/04/13 10:44:34;;;;;;;;;;;;;;;30.97;19.14;101183.13;5022590;28;877;-41
2022/04/13 10:47:20;;;;;;;;;;;;;;;29.96;19.90;101180.34;5018789;28;771;-41
2022/04/13 10:49:46;;;;;;;;;;;;;;;29.74;20.33;101177.59;5020103;28;1018;-40
2022/04/13 10:52:14;;;;;;;;;;;;;;;29.73;20.45;101175.94;5019006;28;849;-40
2022/04/13 10:54:39;;;;;;;;;;;;;;;29.57;20.95;101178.63;5022696;28;1159;-40
2022/04/13 10:57:05;;;;;;;;;;;;;;;29.51;20.65;101173.13;5025728;28;1898;-38
2022/04/13 10:59:32;;;;;;;;;;;;;;;29.54;20.61;101167.31;5036909;28;1263;-40
2022/04/13 11:01:58;;;;;;;;;;;;;;;30.15;19.99;101163.44;5036314;28;1098;-41
2022/04/13 11:04:24;;;;;;;;;;;;;;;30.75;18.96;101162.28;5027443;28;1085;-41
2022/04/13 11:06:49;;;;;;;;;;;;;;;30.94;18.13;101165.38;5019188;28;1264;-41
2022/04/13 11:09:21;;;;;;;;;;;;;;;29.75;19.47;101161.13;5024642;28;786;-41
2022/04/13 11:11:46;;;;;;;;;;;;;;;29.32;20.31;101159.97;5036165;28;1285;-40
2022/04/13 11:14:16;;;;;;;;;;;;;;;29.27;20.42;101154.28;5036818;28;918;-43
2022/04/13 11:16:41;;;;;;;;;;;;;;;29.05;20.52;101164.16;5037086;28;1889;-40
2022/04/13 11:19:07;;;;;;;;;;;;;;;28.99;20.34;101154.09;5035574;28;925;-41
2022/04/13 11:21:32;;;;;;;;;;;;;;;28.95;20.33;101156.28;5030353;28;965;-41
2022/04/13 11:23:58;;;;;;;;;;;;;;;28.66;20.80;101149.81;5035163;28;1211;-40
2022/04/13 11:26:35;;;;;;;;;;;;;;;29.90;19.72;101154.81;5021011;28;1069;-42
2022/04/13 11:29:09;;;;;;;;;;;;;;;30.59;18.91;101152.56;5017823;28;862;-41
2022/04/13 11:31:53;;;;;;;;;;;;;;;31.16;18.31;101152.50;5017977;28;874;-41
2022/04/13 11:34:23;;;;;;;;;;;;;;;29.70;19.62;101141.88;5023804;28;828;-41
2022/04/13 11:36:49;;;;;;;;;;;;;;;29.33;19.83;101134.53;5016246;28;1883;-41
2022/04/13 11:39:14;;;;;;;;;;;;;;;29.01;20.36;101138.50;5018750;28;1222;-39
2022/04/13 11:41:49;;;;;;;;;;;;;;;28.99;19.87;101132.41;5017466;28;842;-40
2022/04/13 11:44:17;;;;;;;;;;;;;;;28.82;20.31;101135.28;5017767;28;858;-40
2022/04/13 11:46:43;;;;;;;;;;;;;;;28.64;20.29;101136.47;5019871;28;783;-41
2022/04/13 11:49:09;;;;;;;;;;;;;;;28.64;20.38;101135.63;5017756;28;771;-40
2022/04/13 11:51:35;;;;;;;;;;;;;;;29.55;19.75;101134.59;5020223;28;1055;-41
2022/04/13 11:54:07;;;;;;;;;;;;;;;30.50;18.61;101138.28;5032629;28;1116;-39
2022/04/13 11:56:33;;;;;;;;;;;;;;;30.87;18.07;101140.03;5023533;28;1966;-41
2022/04/13 11:58:58;;;;;;;;;;;;;;;31.14;17.74;101141.03;5023594;28;1140;-41
2022/04/13 12:01:25;;;;;;;;;;;;;;;30.31;18.59;101127.06;5027358;28;1100;-41
2022/04/13 12:03:51;;;;;;;;;;;;;;;29.49;19.55;101123.69;5027118;28;1275;-40
2022/04/13 12:06:16;;;;;;;;;;;;;;;29.03;19.96;101125.63;5028890;28;1259;-41
2022/04/13 12:08:42;;;;;;;;;;;;;;;28.74;20.27;101128.09;5029555;28;1149;-42
2022/04/13 12:11:08;;;;;;;;;;;;;;;28.68;20.51;101116.13;5031628;28;1322;-40
2022/04/13 12:13:50;;;;;;;;;;;;;;;28.65;20.44;101113.78;5035314;28;1155;-41
2022/04/13 12:16:16;;;;;;;;;;;;;;;28.46;20.50;101115.97;5034239;28;1246;-40
2022/04/13 12:18:41;;;;;;;;;;;;;;;29.94;19.34;101112.72;5029339;28;1906;-40
2022/04/13 12:21:10;;;;;;;;;;;;;;;30.39;18.81;101117.97;5028545;28;1369;-40
2022/04/13 12:23:36;;;;;;;;;;;;;;;30.81;18.30;101125.38;5031966;28;1211;-37
2022/04/13 12:26:01;;;;;;;;;;;;;;;31.11;18.02;101116.13;5033924;28;1043;-40
2022/04/13 12:28:26;;;;;;;;;;;;;;;31.27;17.97;101115.78;5032598;28;1337;-41
2022/04/13 12:30:59;;;;;;;;;;;;;;;30.06;18.74;101107.63;5034322;28;1294;-41
2022/04/13 12:33:25;;;;;;;;;;;;;;;29.36;19.80;101091.84;5016785;28;895;-41
2022/04/13 12:35:51;;;;;;;;;;;;;;;29.09;20.09;101092.34;5016697;28;925;-41
2022/04/13 12:38:20;;;;;;;;;;;;;;;29.01;20.31;101087.03;5018220;28;1902;-40
2022/04/13 12:40:46;;;;;;;;;;;;;;;28.84;20.30;101090.72;5017070;28;875;-40
2022/04/13 12:43:11;;;;;;;;;;;;;;;28.88;20.52;101095.78;5028374;28;1266;-41
2022/04/13 12:45:36;;;;;;;;;;;;;;;28.78;20.37;101087.94;5035531;28;762;-41
2022/04/13 12:48:04;;;;;;;;;;;;;;;29.15;20.51;101085.31;5035136;28;878;-41